sensor_id;sensor_type;location;lat;lon;timestamp;temperature;humidity
4520;DHT22;2272;49.226;8.108;2022-12-18T00:00:40;-9.50;99.90
4520;DHT22;2272;49.226;8.108;2022-12-18T00:03:08;-9.40;99.90
4520;DHT22;2272;49.226;8.108;2022-12-18T00:05:35;-9.40;99.90
4520;DHT22;2272;49.226;8.108;2022-12-18T00:08:02;-9.40;99.90
4520;DHT22;2272;49.226;8.108;2022-12-18T00:10:29;-9.40;99.90
4520;DHT22;2272;49.226;8.108;2022-12-18T00:12:56;-9.40;99.90
4520;DHT22;2272;49.226;8.108;2022-12-18T00:15:24;-9.40;99.90
4520;DHT22;2272;49.226;8.108;2022-12-18T00:17:51;-9.40;99.90
4520;DHT22;2272;49.226;8.108;2022-12-18T00:20:17;-9.30;99.90
4520;DHT22;2272;49.226;8.108;2022-12-18T00:22:50;-9.30;99.90
4520;DHT22;2272;49.226;8.108;2022-12-18T00:25:17;-9.30;99.90
4520;DHT22;2272;49.226;8.108;2022-12-18T00:27:44;-9.30;99.90
4520;DHT22;2272;49.226;8.108;2022-12-18T00:30:11;-9.30;99.90
4520;DHT22;2272;49.226;8.108;2022-12-18T00:32:39;-9.20;99.90
4520;DHT22;2272;49.226;8.108;2022-12-18T00:35:07;-9.30;99.90
4520;DHT22;2272;49.226;8.108;2022-12-18T00:37:33;-9.20;99.90
4520;DHT22;2272;49.226;8.108;2022-12-18T00:40:00;-9.20;99.90
4520;DHT22;2272;49.226;8.108;2022-12-18T00:42:27;-9.20;99.90
4520;DHT22;2272;49.226;8.108;2022-12-18T00:45:11;-9.10;99.90
4520;DHT22;2272;49.226;8.108;2022-12-18T00:47:39;-9.10;99.90
4520;DHT22;2272;49.226;8.108;2022-12-18T00:50:07;-9.10;99.90
4520;DHT22;2272;49.226;8.108;2022-12-18T00:52:34;-9.10;99.90
4520;DHT22;2272;49.226;8.108;2022-12-18T00:55:01;-9.00;99.90
4520;DHT22;2272;49.226;8.108;2022-12-18T00:57:27;-8.90;99.90
4520;DHT22;2272;49.226;8.108;2022-12-18T00:59:54;-8.90;99.90
4520;DHT22;2272;49.226;8.108;2022-12-18T01:02:21;-8.80;99.90
4520;DHT22;2272;49.226;8.108;2022-12-18T01:04:49;-8.70;99.90
4520;DHT22;2272;49.226;8.108;2022-12-18T01:07:15;-8.60;99.90
4520;DHT22;2272;49.226;8.108;2022-12-18T01:09:42;-8.60;99.90
4520;DHT22;2272;49.226;8.108;2022-12-18T01:12:09;-8.60;99.90
4520;DHT22;2272;49.226;8.108;2022-12-18T01:14:36;-8.60;99.90
4520;DHT22;2272;49.226;8.108;2022-12-18T01:17:03;-8.50;99.90
4520;DHT22;2272;49.226;8.108;2022-12-18T01:19:30;-8.40;99.90
4520;DHT22;2272;49.226;8.108;2022-12-18T01:21:58;-8.30;99.90
4520;DHT22;2272;49.226;8.108;2022-12-18T01:24:25;-8.20;99.90
4520;DHT22;2272;49.226;8.108;2022-12-18T01:26:52;-8.20;99.90
4520;DHT22;2272;49.226;8.108;2022-12-18T01:29:18;-8.10;99.90
4520;DHT22;2272;49.226;8.108;2022-12-18T01:31:45;-8.10;99.90
4520;DHT22;2272;49.226;8.108;2022-12-18T01:34:12;-8.00;99.90
4520;DHT22;2272;49.226;8.108;2022-12-18T01:36:38;-8.00;99.90
4520;DHT22;2272;49.226;8.108;2022-12-18T01:39:10;-8.00;99.90
4520;DHT22;2272;49.226;8.108;2022-12-18T01:41:38;-8.00;99.90
4520;DHT22;2272;49.226;8.108;2022-12-18T01:47:32;-8.10;99.90
4520;DHT22;2272;49.226;8.108;2022-12-18T01:50:01;-8.10;99.90
4520;DHT22;2272;49.226;8.108;2022-12-18T01:52:32;-8.10;99.90
4520;DHT22;2272;49.226;8.108;2022-12-18T01:55:02;-8.10;99.90
4520;DHT22;2272;49.226;8.108;2022-12-18T01:57:31;-8.10;99.90
4520;DHT22;2272;49.226;8.108;2022-12-18T02:00:01;-8.10;99.90
4520;DHT22;2272;49.226;8.108;2022-12-18T02:02:29;-8.10;99.90
4520;DHT22;2272;49.226;8.108;2022-12-18T02:04:56;-8.00;99.90
4520;DHT22;2272;49.226;8.108;2022-12-18T02:07:31;-8.00;99.90
4520;DHT22;2272;49.226;8.108;2022-12-18T02:10:06;-8.00;99.90
4520;DHT22;2272;49.226;8.108;2022-12-18T02:12:43;-7.90;99.90
4520;DHT22;2272;49.226;8.108;2022-12-18T02:15:15;-7.80;99.90
4520;DHT22;2272;49.226;8.108;2022-12-18T02:17:47;-7.80;99.90
4520;DHT22;2272;49.226;8.108;2022-12-18T02:20:19;-7.80;99.90
4520;DHT22;2272;49.226;8.108;2022-12-18T02:22:58;-7.80;99.90
4520;DHT22;2272;49.226;8.108;2022-12-18T02:25:43;-7.80;99.90
4520;DHT22;2272;49.226;8.108;2022-12-18T02:28:15;-7.80;99.90
4520;DHT22;2272;49.226;8.108;2022-12-18T02:30:46;-7.80;99.90
4520;DHT22;2272;49.226;8.108;2022-12-18T02:33:14;-7.80;99.90
4520;DHT22;2272;49.226;8.108;2022-12-18T02:35:43;-7.80;99.90
4520;DHT22;2272;49.226;8.108;2022-12-18T02:38:12;-7.80;99.90
4520;DHT22;2272;49.226;8.108;2022-12-18T02:40:39;-7.90;99.90
4520;DHT22;2272;49.226;8.108;2022-12-18T02:43:08;-7.90;99.90
4520;DHT22;2272;49.226;8.108;2022-12-18T02:45:45;-7.90;99.90
4520;DHT22;2272;49.226;8.108;2022-12-18T02:48:12;-7.90;99.90
4520;DHT22;2272;49.226;8.108;2022-12-18T02:50:44;-7.90;99.90
4520;DHT22;2272;49.226;8.108;2022-12-18T02:53:17;-7.90;99.90
4520;DHT22;2272;49.226;8.108;2022-12-18T02:56:01;-7.90;99.90
4520;DHT22;2272;49.226;8.108;2022-12-18T02:58:34;-7.90;99.90
4520;DHT22;2272;49.226;8.108;2022-12-18T03:01:09;-7.90;99.90
4520;DHT22;2272;49.226;8.108;2022-12-18T03:03:41;-7.90;99.90
4520;DHT22;2272;49.226;8.108;2022-12-18T03:06:12;-7.90;99.90
4520;DHT22;2272;49.226;8.108;2022-12-18T03:08:43;-7.90;99.90
4520;DHT22;2272;49.226;8.108;2022-12-18T03:11:12;-8.00;99.90
4520;DHT22;2272;49.226;8.108;2022-12-18T03:13:44;-8.00;99.90
4520;DHT22;2272;49.226;8.108;2022-12-18T03:16:16;-8.10;99.90
4520;DHT22;2272;49.226;8.108;2022-12-18T03:18:48;-8.10;99.90
4520;DHT22;2272;49.226;8.108;2022-12-18T03:21:18;-8.20;99.90
4520;DHT22;2272;49.226;8.108;2022-12-18T03:23:49;-8.20;99.90
4520;DHT22;2272;49.226;8.108;2022-12-18T03:26:18;-8.20;99.90
4520;DHT22;2272;49.226;8.108;2022-12-18T03:28:49;-8.30;99.90
4520;DHT22;2272;49.226;8.108;2022-12-18T03:31:19;-8.30;99.90
4520;DHT22;2272;49.226;8.108;2022-12-18T03:33:52;-8.30;99.90
4520;DHT22;2272;49.226;8.108;2022-12-18T03:36:20;-8.20;99.90
4520;DHT22;2272;49.226;8.108;2022-12-18T03:38:47;-8.20;99.90
4520;DHT22;2272;49.226;8.108;2022-12-18T03:41:17;-8.20;99.90
4520;DHT22;2272;49.226;8.108;2022-12-18T03:43:50;-8.30;99.90
4520;DHT22;2272;49.226;8.108;2022-12-18T03:46:25;-8.30;99.90
4520;DHT22;2272;49.226;8.108;2022-12-18T03:48:59;-8.20;99.90
4520;DHT22;2272;49.226;8.108;2022-12-18T03:51:32;-8.10;99.90
4520;DHT22;2272;49.226;8.108;2022-12-18T03:54:03;-8.10;99.90
4520;DHT22;2272;49.226;8.108;2022-12-18T03:56:33;-8.10;99.90
4520;DHT22;2272;49.226;8.108;2022-12-18T03:59:03;-8.10;99.90
4520;DHT22;2272;49.226;8.108;2022-12-18T04:01:34;-8.10;99.90
4520;DHT22;2272;49.226;8.108;2022-12-18T04:04:03;-8.10;99.90
4520;DHT22;2272;49.226;8.108;2022-12-18T04:06:31;-8.00;99.90
4520;DHT22;2272;49.226;8.108;2022-12-18T04:08:58;-8.00;99.90
4520;DHT22;2272;49.226;8.108;2022-12-18T04:11:25;-7.80;99.90
4520;DHT22;2272;49.226;8.108;2022-12-18T04:13:57;-7.80;99.90
4520;DHT22;2272;49.226;8.108;2022-12-18T04:16:24;-7.70;99.90
4520;DHT22;2272;49.226;8.108;2022-12-18T04:18:53;-7.70;99.90
4520;DHT22;2272;49.226;8.108;2022-12-18T04:21:20;-7.70;99.90
4520;DHT22;2272;49.226;8.108;2022-12-18T04:23:48;-7.80;99.90
4520;DHT22;2272;49.226;8.108;2022-12-18T04:26:14;-7.80;99.90
4520;DHT22;2272;49.226;8.108;2022-12-18T04:28:41;-7.80;99.90
4520;DHT22;2272;49.226;8.108;2022-12-18T04:31:08;-7.80;99.90
4520;DHT22;2272;49.226;8.108;2022-12-18T04:33:34;-7.80;99.90
4520;DHT22;2272;49.226;8.108;2022-12-18T04:36:03;-7.70;99.90
4520;DHT22;2272;49.226;8.108;2022-12-18T04:38:30;-7.70;99.90
4520;DHT22;2272;49.226;8.108;2022-12-18T04:40:56;-7.70;99.90
4520;DHT22;2272;49.226;8.108;2022-12-18T04:43:23;-7.70;99.90
4520;DHT22;2272;49.226;8.108;2022-12-18T04:45:50;-7.80;99.90
4520;DHT22;2272;49.226;8.108;2022-12-18T04:48:16;-7.80;99.90
4520;DHT22;2272;49.226;8.108;2022-12-18T04:50:43;-7.80;99.90
4520;DHT22;2272;49.226;8.108;2022-12-18T04:53:11;-7.90;99.90
4520;DHT22;2272;49.226;8.108;2022-12-18T04:55:38;-7.90;99.90
4520;DHT22;2272;49.226;8.108;2022-12-18T04:58:04;-7.90;99.90
4520;DHT22;2272;49.226;8.108;2022-12-18T05:00:31;-7.90;99.90
4520;DHT22;2272;49.226;8.108;2022-12-18T05:02:58;-8.00;99.90
4520;DHT22;2272;49.226;8.108;2022-12-18T05:05:27;-8.00;99.90
4520;DHT22;2272;49.226;8.108;2022-12-18T05:07:53;-8.00;99.90
4520;DHT22;2272;49.226;8.108;2022-12-18T05:10:21;-8.00;99.90
4520;DHT22;2272;49.226;8.108;2022-12-18T05:12:48;-8.10;99.90
4520;DHT22;2272;49.226;8.108;2022-12-18T05:15:28;-8.10;99.90
4520;DHT22;2272;49.226;8.108;2022-12-18T05:17:56;-8.10;99.90
4520;DHT22;2272;49.226;8.108;2022-12-18T05:20:23;-8.10;99.90
4520;DHT22;2272;49.226;8.108;2022-12-18T05:22:50;-8.10;99.90
4520;DHT22;2272;49.226;8.108;2022-12-18T05:25:17;-8.20;99.90
4520;DHT22;2272;49.226;8.108;2022-12-18T05:27:45;-8.20;99.90
4520;DHT22;2272;49.226;8.108;2022-12-18T05:30:12;-8.20;99.90
4520;DHT22;2272;49.226;8.108;2022-12-18T05:32:40;-8.20;99.90
4520;DHT22;2272;49.226;8.108;2022-12-18T05:35:08;-8.20;99.90
4520;DHT22;2272;49.226;8.108;2022-12-18T05:37:35;-8.20;99.90
4520;DHT22;2272;49.226;8.108;2022-12-18T05:40:03;-8.20;99.90
4520;DHT22;2272;49.226;8.108;2022-12-18T05:42:30;-8.20;99.90
4520;DHT22;2272;49.226;8.108;2022-12-18T05:44:58;-8.20;99.90
4520;DHT22;2272;49.226;8.108;2022-12-18T05:47:26;-8.20;99.90
4520;DHT22;2272;49.226;8.108;2022-12-18T05:49:53;-8.20;99.90
4520;DHT22;2272;49.226;8.108;2022-12-18T05:52:20;-8.20;99.90
4520;DHT22;2272;49.226;8.108;2022-12-18T05:54:46;-8.20;99.90
4520;DHT22;2272;49.226;8.108;2022-12-18T05:57:13;-8.20;99.90
4520;DHT22;2272;49.226;8.108;2022-12-18T05:59:40;-8.20;99.90
4520;DHT22;2272;49.226;8.108;2022-12-18T06:02:08;-8.20;99.90
4520;DHT22;2272;49.226;8.108;2022-12-18T06:04:34;-8.20;99.90
4520;DHT22;2272;49.226;8.108;2022-12-18T06:07:01;-8.20;99.90
4520;DHT22;2272;49.226;8.108;2022-12-18T06:09:29;-8.20;99.90
4520;DHT22;2272;49.226;8.108;2022-12-18T06:11:56;-8.20;99.90
4520;DHT22;2272;49.226;8.108;2022-12-18T06:14:22;-8.10;99.90
4520;DHT22;2272;49.226;8.108;2022-12-18T06:16:50;-8.10;99.90
4520;DHT22;2272;49.226;8.108;2022-12-18T06:19:18;-8.20;99.90
4520;DHT22;2272;49.226;8.108;2022-12-18T06:21:45;-8.20;99.90
4520;DHT22;2272;49.226;8.108;2022-12-18T06:24:12;-8.30;99.90
4520;DHT22;2272;49.226;8.108;2022-12-18T06:26:39;-8.30;99.90
4520;DHT22;2272;49.226;8.108;2022-12-18T06:29:06;-8.30;99.90
4520;DHT22;2272;49.226;8.108;2022-12-18T06:31:32;-8.30;99.90
4520;DHT22;2272;49.226;8.108;2022-12-18T06:33:59;-8.30;99.90
4520;DHT22;2272;49.226;8.108;2022-12-18T06:36:29;-8.30;99.90
4520;DHT22;2272;49.226;8.108;2022-12-18T06:38:56;-8.30;99.90
4520;DHT22;2272;49.226;8.108;2022-12-18T06:41:23;-8.30;99.90
4520;DHT22;2272;49.226;8.108;2022-12-18T06:43:50;-8.30;99.90
4520;DHT22;2272;49.226;8.108;2022-12-18T06:46:16;-8.30;99.90
4520;DHT22;2272;49.226;8.108;2022-12-18T06:48:46;-8.40;99.90
4520;DHT22;2272;49.226;8.108;2022-12-18T06:51:16;-8.40;99.90
4520;DHT22;2272;49.226;8.108;2022-12-18T06:53:44;-8.40;99.90
4520;DHT22;2272;49.226;8.108;2022-12-18T06:56:11;-8.40;99.90
4520;DHT22;2272;49.226;8.108;2022-12-18T06:58:37;-8.40;99.90
4520;DHT22;2272;49.226;8.108;2022-12-18T07:01:06;-8.40;99.90
4520;DHT22;2272;49.226;8.108;2022-12-18T07:03:34;-8.40;99.90
4520;DHT22;2272;49.226;8.108;2022-12-18T07:06:01;-8.40;99.90
4520;DHT22;2272;49.226;8.108;2022-12-18T07:08:28;-8.40;99.90
4520;DHT22;2272;49.226;8.108;2022-12-18T07:10:57;-8.30;99.90
4520;DHT22;2272;49.226;8.108;2022-12-18T07:13:23;-8.40;99.90
4520;DHT22;2272;49.226;8.108;2022-12-18T07:15:50;-8.40;99.90
4520;DHT22;2272;49.226;8.108;2022-12-18T07:18:17;-8.40;99.90
4520;DHT22;2272;49.226;8.108;2022-12-18T07:20:43;-8.40;99.90
4520;DHT22;2272;49.226;8.108;2022-12-18T07:23:10;-8.40;99.90
4520;DHT22;2272;49.226;8.108;2022-12-18T07:25:37;-8.50;99.90
4520;DHT22;2272;49.226;8.108;2022-12-18T07:28:06;-8.50;99.90
4520;DHT22;2272;49.226;8.108;2022-12-18T07:30:32;-8.50;99.90
4520;DHT22;2272;49.226;8.108;2022-12-18T07:32:59;-8.50;99.90
4520;DHT22;2272;49.226;8.108;2022-12-18T07:35:26;-8.60;99.90
4520;DHT22;2272;49.226;8.108;2022-12-18T07:37:53;-8.60;99.90
4520;DHT22;2272;49.226;8.108;2022-12-18T07:40:19;-8.60;99.90
4520;DHT22;2272;49.226;8.108;2022-12-18T07:42:46;-8.60;99.90
4520;DHT22;2272;49.226;8.108;2022-12-18T07:45:14;-8.60;99.90
4520;DHT22;2272;49.226;8.108;2022-12-18T07:47:41;-8.60;99.90
4520;DHT22;2272;49.226;8.108;2022-12-18T07:50:08;-8.50;99.90
4520;DHT22;2272;49.226;8.108;2022-12-18T07:52:35;-8.50;99.90
4520;DHT22;2272;49.226;8.108;2022-12-18T07:55:02;-8.50;99.90
4520;DHT22;2272;49.226;8.108;2022-12-18T07:57:28;-8.50;99.90
4520;DHT22;2272;49.226;8.108;2022-12-18T07:59:55;-8.40;99.90
4520;DHT22;2272;49.226;8.108;2022-12-18T08:02:23;-8.40;99.90
4520;DHT22;2272;49.226;8.108;2022-12-18T08:04:50;-8.40;99.90
4520;DHT22;2272;49.226;8.108;2022-12-18T08:07:16;-8.40;99.90
4520;DHT22;2272;49.226;8.108;2022-12-18T08:09:43;-8.40;99.90
4520;DHT22;2272;49.226;8.108;2022-12-18T08:12:10;-8.40;99.90
4520;DHT22;2272;49.226;8.108;2022-12-18T08:14:37;-8.30;99.90
4520;DHT22;2272;49.226;8.108;2022-12-18T08:17:04;-8.30;99.90
4520;DHT22;2272;49.226;8.108;2022-12-18T08:19:32;-8.30;99.90
4520;DHT22;2272;49.226;8.108;2022-12-18T08:21:58;-8.20;99.90
4520;DHT22;2272;49.226;8.108;2022-12-18T08:24:25;-8.20;99.90
4520;DHT22;2272;49.226;8.108;2022-12-18T08:26:52;-8.20;99.90
4520;DHT22;2272;49.226;8.108;2022-12-18T08:29:18;-8.10;99.90
4520;DHT22;2272;49.226;8.108;2022-12-18T08:31:45;-8.10;99.90
4520;DHT22;2272;49.226;8.108;2022-12-18T08:34:12;-8.00;99.90
4520;DHT22;2272;49.226;8.108;2022-12-18T08:36:40;-8.00;99.90
4520;DHT22;2272;49.226;8.108;2022-12-18T08:39:07;-7.90;99.90
4520;DHT22;2272;49.226;8.108;2022-12-18T08:41:33;-7.80;99.90
4520;DHT22;2272;49.226;8.108;2022-12-18T08:44:00;-7.70;99.90
4520;DHT22;2272;49.226;8.108;2022-12-18T08:46:44;-7.60;99.90
4520;DHT22;2272;49.226;8.108;2022-12-18T08:49:12;-7.50;99.90
4520;DHT22;2272;49.226;8.108;2022-12-18T08:51:40;-7.40;99.90
4520;DHT22;2272;49.226;8.108;2022-12-18T08:54:07;-7.30;99.90
4520;DHT22;2272;49.226;8.108;2022-12-18T08:56:34;-7.30;99.90
4520;DHT22;2272;49.226;8.108;2022-12-18T08:59:00;-7.30;99.90
4520;DHT22;2272;49.226;8.108;2022-12-18T09:01:27;-7.20;99.90
4520;DHT22;2272;49.226;8.108;2022-12-18T09:03:54;-7.20;99.90
4520;DHT22;2272;49.226;8.108;2022-12-18T09:06:22;-7.20;99.90
4520;DHT22;2272;49.226;8.108;2022-12-18T09:08:50;-7.20;99.90
4520;DHT22;2272;49.226;8.108;2022-12-18T09:11:20;-7.10;99.90
4520;DHT22;2272;49.226;8.108;2022-12-18T09:13:47;-7.10;99.90
4520;DHT22;2272;49.226;8.108;2022-12-18T09:16:14;-7.10;99.90
4520;DHT22;2272;49.226;8.108;2022-12-18T09:18:41;-7.10;99.90
4520;DHT22;2272;49.226;8.108;2022-12-18T09:21:09;-7.10;99.90
4520;DHT22;2272;49.226;8.108;2022-12-18T09:23:36;-7.10;99.90
4520;DHT22;2272;49.226;8.108;2022-12-18T09:26:05;-7.10;99.90
4520;DHT22;2272;49.226;8.108;2022-12-18T09:28:31;-7.00;99.90
4520;DHT22;2272;49.226;8.108;2022-12-18T09:30:58;-7.00;99.90
4520;DHT22;2272;49.226;8.108;2022-12-18T09:33:25;-6.90;99.90
4520;DHT22;2272;49.226;8.108;2022-12-18T09:35:52;-6.90;99.90
4520;DHT22;2272;49.226;8.108;2022-12-18T09:38:19;-6.70;99.90
4520;DHT22;2272;49.226;8.108;2022-12-18T09:40:49;-6.70;99.90
4520;DHT22;2272;49.226;8.108;2022-12-18T09:43:21;-6.60;99.90
4520;DHT22;2272;49.226;8.108;2022-12-18T09:45:53;-6.60;99.90
4520;DHT22;2272;49.226;8.108;2022-12-18T09:48:23;-6.50;99.90
4520;DHT22;2272;49.226;8.108;2022-12-18T09:50:54;-6.50;99.90
4520;DHT22;2272;49.226;8.108;2022-12-18T09:53:25;-6.60;99.90
4520;DHT22;2272;49.226;8.108;2022-12-18T09:55:52;-6.50;99.90
4520;DHT22;2272;49.226;8.108;2022-12-18T09:58:30;-6.50;99.90
4520;DHT22;2272;49.226;8.108;2022-12-18T10:00:58;-6.50;99.90
4520;DHT22;2272;49.226;8.108;2022-12-18T10:03:25;-6.60;99.90
4520;DHT22;2272;49.226;8.108;2022-12-18T10:06:01;-6.50;99.90
4520;DHT22;2272;49.226;8.108;2022-12-18T10:08:34;-6.40;99.90
4520;DHT22;2272;49.226;8.108;2022-12-18T10:11:19;-6.40;99.90
4520;DHT22;2272;49.226;8.108;2022-12-18T10:13:53;-6.30;99.90
4520;DHT22;2272;49.226;8.108;2022-12-18T10:16:27;-6.30;99.90
4520;DHT22;2272;49.226;8.108;2022-12-18T10:19:04;-6.20;99.90
4520;DHT22;2272;49.226;8.108;2022-12-18T10:21:42;-6.00;99.90
4520;DHT22;2272;49.226;8.108;2022-12-18T10:24:17;-5.80;99.90
4520;DHT22;2272;49.226;8.108;2022-12-18T10:26:47;-5.70;99.90
4520;DHT22;2272;49.226;8.108;2022-12-18T10:29:16;-5.40;99.90
4520;DHT22;2272;49.226;8.108;2022-12-18T10:31:43;-5.20;99.90
4520;DHT22;2272;49.226;8.108;2022-12-18T10:34:10;-5.10;99.90
4520;DHT22;2272;49.226;8.108;2022-12-18T10:39:19;-5.00;99.90
4520;DHT22;2272;49.226;8.108;2022-12-18T10:41:48;-4.90;99.90
4520;DHT22;2272;49.226;8.108;2022-12-18T10:44:19;-4.90;99.90
4520;DHT22;2272;49.226;8.108;2022-12-18T10:46:47;-4.90;99.90
4520;DHT22;2272;49.226;8.108;2022-12-18T10:51:50;-4.60;99.90
4520;DHT22;2272;49.226;8.108;2022-12-18T10:54:20;-4.50;99.90
4520;DHT22;2272;49.226;8.108;2022-12-18T10:56:48;-4.50;99.90
4520;DHT22;2272;49.226;8.108;2022-12-18T10:59:18;-4.50;99.90
4520;DHT22;2272;49.226;8.108;2022-12-18T11:01:50;-4.50;99.90
4520;DHT22;2272;49.226;8.108;2022-12-18T11:04:20;-4.40;99.90
4520;DHT22;2272;49.226;8.108;2022-12-18T11:06:55;-4.30;99.90
4520;DHT22;2272;49.226;8.108;2022-12-18T11:09:23;-4.40;99.90
4520;DHT22;2272;49.226;8.108;2022-12-18T11:11:51;-4.40;99.90
4520;DHT22;2272;49.226;8.108;2022-12-18T11:14:22;-4.40;99.90
4520;DHT22;2272;49.226;8.108;2022-12-18T11:16:51;-4.20;99.90
4520;DHT22;2272;49.226;8.108;2022-12-18T11:19:27;-4.10;99.90
4520;DHT22;2272;49.226;8.108;2022-12-18T11:21:55;-4.10;99.90
4520;DHT22;2272;49.226;8.108;2022-12-18T11:24:27;-4.10;99.90
4520;DHT22;2272;49.226;8.108;2022-12-18T11:26:55;-4.20;99.90
4520;DHT22;2272;49.226;8.108;2022-12-18T11:29:30;-4.20;99.90
4520;DHT22;2272;49.226;8.108;2022-12-18T11:32:19;-4.20;99.90
4520;DHT22;2272;49.226;8.108;2022-12-18T11:34:50;-4.20;99.90
4520;DHT22;2272;49.226;8.108;2022-12-18T11:37:18;-4.30;99.90
4520;DHT22;2272;49.226;8.108;2022-12-18T11:39:50;-4.30;99.90
4520;DHT22;2272;49.226;8.108;2022-12-18T11:42:21;-4.40;99.90
4520;DHT22;2272;49.226;8.108;2022-12-18T11:44:55;-4.30;99.90
4520;DHT22;2272;49.226;8.108;2022-12-18T11:47:28;-4.40;99.90
4520;DHT22;2272;49.226;8.108;2022-12-18T11:50:00;-4.50;99.90
4520;DHT22;2272;49.226;8.108;2022-12-18T11:52:31;-4.60;99.90
4520;DHT22;2272;49.226;8.108;2022-12-18T11:55:04;-4.60;99.90
4520;DHT22;2272;49.226;8.108;2022-12-18T11:57:39;-4.60;99.90
4520;DHT22;2272;49.226;8.108;2022-12-18T12:00:13;-4.60;99.90
4520;DHT22;2272;49.226;8.108;2022-12-18T12:05:42;-4.70;99.90
4520;DHT22;2272;49.226;8.108;2022-12-18T12:08:21;-4.60;99.90
4520;DHT22;2272;49.226;8.108;2022-12-18T12:10:58;-4.50;99.90
4520;DHT22;2272;49.226;8.108;2022-12-18T12:13:40;-4.40;99.90
4520;DHT22;2272;49.226;8.108;2022-12-18T12:16:17;-4.50;99.90
4520;DHT22;2272;49.226;8.108;2022-12-18T12:18:56;-4.50;99.90
4520;DHT22;2272;49.226;8.108;2022-12-18T12:21:32;-4.60;99.90
4520;DHT22;2272;49.226;8.108;2022-12-18T12:24:12;-4.50;99.90
4520;DHT22;2272;49.226;8.108;2022-12-18T12:26:49;-4.40;99.90
4520;DHT22;2272;49.226;8.108;2022-12-18T12:29:29;-4.20;99.90
4520;DHT22;2272;49.226;8.108;2022-12-18T12:32:11;-4.20;99.90
4520;DHT22;2272;49.226;8.108;2022-12-18T12:34:44;-4.20;99.90
4520;DHT22;2272;49.226;8.108;2022-12-18T12:37:23;-4.10;99.90
4520;DHT22;2272;49.226;8.108;2022-12-18T12:39:53;-4.10;99.90
4520;DHT22;2272;49.226;8.108;2022-12-18T12:42:26;-4.10;99.90
4520;DHT22;2272;49.226;8.108;2022-12-18T12:45:18;-4.20;99.90
4520;DHT22;2272;49.226;8.108;2022-12-18T12:47:49;-4.20;99.90
4520;DHT22;2272;49.226;8.108;2022-12-18T12:50:18;-4.20;99.90
4520;DHT22;2272;49.226;8.108;2022-12-18T12:52:47;-4.20;99.90
4520;DHT22;2272;49.226;8.108;2022-12-18T12:55:18;-4.20;99.90
4520;DHT22;2272;49.226;8.108;2022-12-18T12:57:54;-4.20;99.90
4520;DHT22;2272;49.226;8.108;2022-12-18T13:00:22;-4.10;99.90
4520;DHT22;2272;49.226;8.108;2022-12-18T13:02:59;-4.20;99.90
4520;DHT22;2272;49.226;8.108;2022-12-18T13:05:30;-4.20;99.90
4520;DHT22;2272;49.226;8.108;2022-12-18T13:08:02;-4.40;99.90
4520;DHT22;2272;49.226;8.108;2022-12-18T13:10:34;-4.40;99.90
4520;DHT22;2272;49.226;8.108;2022-12-18T13:13:03;-4.40;99.90
4520;DHT22;2272;49.226;8.108;2022-12-18T13:15:34;-4.50;99.90
4520;DHT22;2272;49.226;8.108;2022-12-18T13:18:16;-4.50;99.90
4520;DHT22;2272;49.226;8.108;2022-12-18T13:20:45;-4.60;99.90
4520;DHT22;2272;49.226;8.108;2022-12-18T13:23:33;-4.60;99.90
4520;DHT22;2272;49.226;8.108;2022-12-18T13:26:29;-4.50;99.90
4520;DHT22;2272;49.226;8.108;2022-12-18T13:28:58;-4.60;99.90
4520;DHT22;2272;49.226;8.108;2022-12-18T13:34:36;-4.70;99.90
4520;DHT22;2272;49.226;8.108;2022-12-18T13:37:41;-4.60;99.90
4520;DHT22;2272;49.226;8.108;2022-12-18T13:43:24;-4.70;99.90
4520;DHT22;2272;49.226;8.108;2022-12-18T13:46:00;-4.70;99.90
4520;DHT22;2272;49.226;8.108;2022-12-18T13:48:30;-4.70;99.90
4520;DHT22;2272;49.226;8.108;2022-12-18T13:51:01;-4.70;99.90
4520;DHT22;2272;49.226;8.108;2022-12-18T13:53:33;-4.80;99.90
4520;DHT22;2272;49.226;8.108;2022-12-18T13:56:00;-4.80;99.90
4520;DHT22;2272;49.226;8.108;2022-12-18T13:58:28;-4.80;99.90
4520;DHT22;2272;49.226;8.108;2022-12-18T14:00:55;-4.80;99.90
4520;DHT22;2272;49.226;8.108;2022-12-18T14:03:23;-4.80;99.90
4520;DHT22;2272;49.226;8.108;2022-12-18T14:05:58;-4.80;99.90
4520;DHT22;2272;49.226;8.108;2022-12-18T14:08:30;-4.70;99.90
4520;DHT22;2272;49.226;8.108;2022-12-18T14:10:58;-4.70;99.90
4520;DHT22;2272;49.226;8.108;2022-12-18T14:13:29;-4.70;99.90
4520;DHT22;2272;49.226;8.108;2022-12-18T14:15:57;-4.80;99.90
4520;DHT22;2272;49.226;8.108;2022-12-18T14:18:29;-4.70;99.90
4520;DHT22;2272;49.226;8.108;2022-12-18T14:21:00;-4.70;99.90
4520;DHT22;2272;49.226;8.108;2022-12-18T14:23:35;-4.70;99.90
4520;DHT22;2272;49.226;8.108;2022-12-18T14:26:19;-4.70;99.90
4520;DHT22;2272;49.226;8.108;2022-12-18T14:28:46;-4.70;99.90
4520;DHT22;2272;49.226;8.108;2022-12-18T14:31:18;-4.80;99.90
4520;DHT22;2272;49.226;8.108;2022-12-18T14:33:45;-4.80;99.90
4520;DHT22;2272;49.226;8.108;2022-12-18T14:36:16;-4.90;99.90
4520;DHT22;2272;49.226;8.108;2022-12-18T14:38:48;-4.90;99.90
4520;DHT22;2272;49.226;8.108;2022-12-18T14:41:17;-5.00;99.90
4520;DHT22;2272;49.226;8.108;2022-12-18T14:43:46;-5.00;99.90
4520;DHT22;2272;49.226;8.108;2022-12-18T14:46:29;-5.00;99.90
4520;DHT22;2272;49.226;8.108;2022-12-18T14:48:56;-5.10;99.90
4520;DHT22;2272;49.226;8.108;2022-12-18T14:51:24;-5.10;99.90
4520;DHT22;2272;49.226;8.108;2022-12-18T14:53:55;-5.20;99.90
4520;DHT22;2272;49.226;8.108;2022-12-18T14:56:24;-5.20;99.90
4520;DHT22;2272;49.226;8.108;2022-12-18T14:58:53;-5.20;99.90
4520;DHT22;2272;49.226;8.108;2022-12-18T15:01:26;-5.30;99.90
4520;DHT22;2272;49.226;8.108;2022-12-18T15:03:54;-5.30;99.90
4520;DHT22;2272;49.226;8.108;2022-12-18T15:06:30;-5.40;99.90
4520;DHT22;2272;49.226;8.108;2022-12-18T15:09:01;-5.40;99.90
4520;DHT22;2272;49.226;8.108;2022-12-18T15:11:45;-5.50;99.90
4520;DHT22;2272;49.226;8.108;2022-12-18T15:14:22;-5.50;99.90
4520;DHT22;2272;49.226;8.108;2022-12-18T15:16:52;-5.50;99.90
4520;DHT22;2272;49.226;8.108;2022-12-18T15:19:20;-5.50;99.90
4520;DHT22;2272;49.226;8.108;2022-12-18T15:21:47;-5.50;99.90
4520;DHT22;2272;49.226;8.108;2022-12-18T15:24:20;-5.50;99.90
4520;DHT22;2272;49.226;8.108;2022-12-18T15:26:49;-5.50;99.90
4520;DHT22;2272;49.226;8.108;2022-12-18T15:29:19;-5.50;99.90
4520;DHT22;2272;49.226;8.108;2022-12-18T15:31:58;-5.50;99.90
4520;DHT22;2272;49.226;8.108;2022-12-18T15:34:26;-5.40;99.90
4520;DHT22;2272;49.226;8.108;2022-12-18T15:36:53;-5.40;99.90
4520;DHT22;2272;49.226;8.108;2022-12-18T15:39:21;-5.40;99.90
4520;DHT22;2272;49.226;8.108;2022-12-18T15:41:48;-5.30;99.90
4520;DHT22;2272;49.226;8.108;2022-12-18T15:44:32;-5.20;99.90
4520;DHT22;2272;49.226;8.108;2022-12-18T15:47:00;-5.20;99.90
4520;DHT22;2272;49.226;8.108;2022-12-18T15:49:26;-5.20;99.90
4520;DHT22;2272;49.226;8.108;2022-12-18T15:51:54;-5.10;99.90
4520;DHT22;2272;49.226;8.108;2022-12-18T15:54:24;-5.00;99.90
4520;DHT22;2272;49.226;8.108;2022-12-18T15:57:05;-5.00;99.90
4520;DHT22;2272;49.226;8.108;2022-12-18T15:59:50;-5.00;99.90
4520;DHT22;2272;49.226;8.108;2022-12-18T16:02:18;-4.90;99.90
4520;DHT22;2272;49.226;8.108;2022-12-18T16:04:45;-4.90;99.90
4520;DHT22;2272;49.226;8.108;2022-12-18T16:07:12;-4.90;99.90
4520;DHT22;2272;49.226;8.108;2022-12-18T16:09:40;-4.80;99.90
4520;DHT22;2272;49.226;8.108;2022-12-18T16:12:14;-4.80;99.90
4520;DHT22;2272;49.226;8.108;2022-12-18T16:14:41;-4.80;99.90
4520;DHT22;2272;49.226;8.108;2022-12-18T16:17:10;-4.80;99.90
4520;DHT22;2272;49.226;8.108;2022-12-18T16:19:37;-4.70;99.90
4520;DHT22;2272;49.226;8.108;2022-12-18T16:22:04;-4.70;99.90
4520;DHT22;2272;49.226;8.108;2022-12-18T16:24:32;-4.60;99.90
4520;DHT22;2272;49.226;8.108;2022-12-18T16:27:02;-4.60;99.90
4520;DHT22;2272;49.226;8.108;2022-12-18T16:29:29;-4.60;99.90
4520;DHT22;2272;49.226;8.108;2022-12-18T16:31:57;-4.60;99.90
4520;DHT22;2272;49.226;8.108;2022-12-18T16:34:26;-4.50;99.90
4520;DHT22;2272;49.226;8.108;2022-12-18T16:36:53;-4.50;99.90